createdAt,value
2019-01-15T00:00:28.885Z,98889.36
2019-01-15T00:02:58.363Z,98890.95
2019-01-15T00:05:27.765Z,98892.53
2019-01-15T00:07:55.772Z,98880.41
2019-01-15T00:10:23.712Z,98880.41
2019-01-15T00:12:52.658Z,98904.19
2019-01-15T00:15:21.676Z,98900.18
2019-01-15T00:17:50.762Z,98907.34
2019-01-15T00:20:21.741Z,98902.84
2019-01-15T00:22:49.599Z,98903.37
2019-01-15T00:25:17.802Z,98909.27
2019-01-15T00:27:45.841Z,98909.25
2019-01-15T00:30:15.222Z,98916.70
2019-01-15T00:32:43.699Z,98918.34
2019-01-15T00:35:11.383Z,98915.94
2019-01-15T00:37:40.316Z,98914.61
2019-01-15T00:40:12.384Z,98908.77
2019-01-15T00:42:40.785Z,98910.02
2019-01-15T00:45:09.804Z,98900.62
2019-01-15T00:47:37.725Z,98900.62
2019-01-15T00:50:06.842Z,98914.27
2019-01-15T00:52:34.793Z,98927.84
2019-01-15T00:55:02.827Z,98926.20
2019-01-15T00:57:31.859Z,98926.20
2019-01-15T00:59:59.834Z,98926.25
2019-01-15T01:02:27.831Z,98926.25
2019-01-15T01:04:56.809Z,98923.85
2019-01-15T01:07:24.829Z,98927.85
2019-01-15T01:09:53.288Z,98935.07
2019-01-15T01:12:22.296Z,98941.67
2019-01-15T01:14:50.862Z,98934.52
2019-01-15T01:17:18.868Z,98941.86
2019-01-15T01:19:46.842Z,98953.02
2019-01-15T01:22:14.857Z,98953.02
2019-01-15T01:24:43.820Z,98943.36
2019-01-15T01:27:11.886Z,98943.36
2019-01-15T01:29:40.829Z,98977.37
2019-01-15T01:32:08.879Z,98970.03
2019-01-15T01:34:38.847Z,98981.53
2019-01-15T01:38:31.791Z,98984.92
2019-01-15T01:41:00.850Z,98984.92
2019-01-15T01:43:29.877Z,98991.97
2019-01-15T01:45:58.306Z,98998.30
2019-01-15T01:48:27.385Z,98998.30
2019-01-15T01:50:58.335Z,99000.90
2019-01-15T01:53:28.893Z,98995.41
2019-01-15T01:55:58.877Z,98995.41
2019-01-15T01:58:28.881Z,99002.73
2019-01-15T02:00:58.381Z,99002.73
2019-01-15T02:03:27.106Z,99007.56
2019-01-15T02:05:56.791Z,98998.80
2019-01-15T02:08:45.698Z,98995.84
2019-01-15T02:11:14.681Z,98995.84
2019-01-15T02:13:44.836Z,99006.30
2019-01-15T02:16:14.839Z,99003.83
2019-01-15T02:21:01.566Z,98998.22
2019-01-15T02:23:28.924Z,99004.05
2019-01-15T02:25:56.487Z,99007.00
2019-01-15T02:28:23.820Z,99005.39
2019-01-15T02:30:52.972Z,99009.73
2019-01-15T02:33:22.345Z,99001.15
2019-01-15T02:36:09.959Z,99004.72
2019-01-15T02:38:37.519Z,99002.23
2019-01-15T02:41:05.442Z,99007.96
2019-01-15T02:43:33.709Z,99009.45
2019-01-15T02:46:01.789Z,99006.84
2019-01-15T02:48:29.834Z,99007.30
2019-01-15T02:50:59.845Z,99004.89
2019-01-15T02:53:29.827Z,99005.39
2019-01-15T02:55:59.834Z,99005.96
2019-01-15T02:58:27.908Z,99005.96
2019-01-15T03:00:55.731Z,99009.36
2019-01-15T03:03:23.807Z,99009.36
2019-01-15T03:05:51.883Z,99004.53
2019-01-15T03:08:19.746Z,99007.50
2019-01-15T03:10:47.725Z,99007.50
2019-01-15T03:13:15.817Z,99004.03
2019-01-15T03:15:43.928Z,99008.47
2019-01-15T03:18:12.826Z,98982.92
2019-01-15T03:20:41.389Z,98984.55
2019-01-15T03:23:09.774Z,98984.55
2019-01-15T03:25:38.828Z,98988.55
2019-01-15T03:28:06.815Z,98988.55
2019-01-15T03:32:07.252Z,99003.83
2019-01-15T03:34:34.906Z,99004.89
2019-01-15T03:37:02.284Z,99005.41
2019-01-15T03:39:30.259Z,99005.66
2019-01-15T03:41:57.621Z,99005.66
2019-01-15T03:44:28.443Z,99005.73
2019-01-15T03:46:56.621Z,99002.80
2019-01-15T03:49:25.744Z,99006.16
2019-01-15T03:51:53.449Z,99014.16
2019-01-15T03:54:21.015Z,99014.45
2019-01-15T03:56:48.642Z,99019.17
2019-01-15T03:59:15.874Z,99013.84
2019-01-15T04:01:44.833Z,98994.37
2019-01-15T04:04:14.973Z,99012.89
2019-01-15T04:06:43.807Z,99013.91
2019-01-15T04:10:00.743Z,99012.13
2019-01-15T04:12:28.443Z,99027.27
2019-01-15T04:14:56.777Z,99018.40
2019-01-15T04:17:25.811Z,99012.57
2019-01-15T04:19:56.076Z,99005.96
2019-01-15T04:22:24.747Z,99007.23
2019-01-15T04:24:54.776Z,99009.36
2019-01-15T04:27:22.736Z,99009.36
2019-01-15T04:31:10.348Z,98996.92
2019-01-15T04:33:39.819Z,98999.30
2019-01-15T04:36:08.622Z,99006.73
2019-01-15T04:38:37.834Z,99009.39
2019-01-15T04:41:06.833Z,99009.08
2019-01-15T04:43:37.805Z,99002.40
2019-01-15T04:46:07.715Z,99001.61
2019-01-15T04:48:35.827Z,99001.61
2019-01-15T04:51:03.843Z,99002.47
2019-01-15T04:53:33.841Z,98998.41
2019-01-15T04:56:02.349Z,98990.71
2019-01-15T04:58:31.861Z,98981.55
2019-01-15T05:01:00.861Z,99005.66
2019-01-15T05:03:29.810Z,99000.84
2019-01-15T05:05:58.658Z,99000.84
2019-01-15T05:08:28.773Z,99007.44
2019-01-15T05:10:58.738Z,99000.48
2019-01-15T05:13:28.072Z,99000.48
2019-01-15T05:15:57.835Z,99009.86
2019-01-15T05:18:26.848Z,99010.37
2019-01-15T05:20:56.978Z,99004.13
2019-01-15T05:23:27.838Z,99004.13
2019-01-15T05:25:57.377Z,99021.27
2019-01-15T05:28:26.855Z,99021.27
2019-01-15T05:30:56.382Z,99028.78
2019-01-15T05:35:22.584Z,99032.00
2019-01-15T05:37:50.759Z,99027.47
2019-01-15T05:40:17.625Z,99019.73
2019-01-15T05:42:46.755Z,99017.16
2019-01-15T05:45:20.796Z,99009.39
2019-01-15T05:47:49.620Z,99009.39
2019-01-15T05:50:19.630Z,99019.23
2019-01-15T05:52:48.082Z,99017.66
2019-01-15T05:55:16.904Z,99022.14
2019-01-15T05:57:46.070Z,99022.81
2019-01-15T06:00:15.849Z,99022.81
2019-01-15T06:02:44.672Z,99022.71
2019-01-15T06:05:12.855Z,99022.71
2019-01-15T06:07:42.371Z,99015.61
2019-01-15T06:10:12.835Z,99025.64
2019-01-15T06:12:41.840Z,99023.81
2019-01-15T06:15:10.845Z,99023.81
2019-01-15T06:21:14.259Z,99022.53
2019-01-15T06:23:41.991Z,99033.77
2019-01-15T06:26:10.254Z,99033.50
2019-01-15T06:28:38.922Z,99031.90
2019-01-15T06:31:08.627Z,99038.56
2019-01-15T06:33:37.670Z,99038.56
2019-01-15T06:36:06.400Z,99039.09
2019-01-15T06:38:35.451Z,99033.00
2019-01-15T06:41:04.759Z,99037.83
2019-01-15T06:43:32.843Z,99042.16
2019-01-15T06:46:01.779Z,99040.33
2019-01-15T06:48:29.914Z,99038.77
2019-01-15T06:50:57.898Z,99037.33
2019-01-15T06:53:27.725Z,99034.66
2019-01-15T06:55:55.838Z,99034.66
2019-01-15T06:58:23.853Z,99035.16
2019-01-15T07:00:52.017Z,99034.16
2019-01-15T07:03:21.677Z,99015.57
2019-01-15T07:05:49.961Z,99015.57
2019-01-15T07:08:19.859Z,99031.94
2019-01-15T07:10:47.877Z,99031.94
2019-01-15T07:14:45.443Z,99030.45
2019-01-15T07:17:13.017Z,99031.77
2019-01-15T07:19:40.428Z,99028.02
2019-01-15T07:22:07.687Z,99029.07
2019-01-15T07:24:35.395Z,99036.27
2019-01-15T07:27:02.759Z,99031.50
2019-01-15T07:29:30.358Z,99031.44
2019-01-15T07:31:57.603Z,99031.44
2019-01-15T07:34:24.659Z,99030.41
2019-01-15T07:36:52.457Z,99034.10
2019-01-15T07:39:19.903Z,99036.00
2019-01-15T07:41:47.498Z,99036.86
2019-01-15T07:44:14.782Z,99036.86
2019-01-15T07:46:42.890Z,99034.70
2019-01-15T07:49:10.252Z,99034.94
2019-01-15T07:51:37.847Z,99046.66
2019-01-15T07:54:05.611Z,99049.73
2019-01-15T07:56:33.450Z,99049.73
2019-01-15T07:59:01.131Z,99037.48
2019-01-15T08:01:28.499Z,99026.61
2019-01-15T08:03:57.542Z,99027.91
2019-01-15T08:06:24.804Z,99030.56
2019-01-15T08:08:51.957Z,99032.69
2019-01-15T08:11:19.253Z,99040.16
2019-01-15T08:13:47.466Z,99048.77
2019-01-15T08:16:15.750Z,99048.77
2019-01-15T08:18:43.817Z,99052.75
2019-01-15T08:21:11.099Z,99052.75
2019-01-15T08:23:38.406Z,99060.47
2019-01-15T08:26:06.096Z,99062.38
2019-01-15T08:28:33.768Z,99055.48
2019-01-15T08:31:01.339Z,99051.75
2019-01-15T08:33:29.811Z,99051.25
2019-01-15T08:35:57.249Z,99047.17
2019-01-15T08:38:25.434Z,99034.60
2019-01-15T08:40:53.791Z,99042.69
2019-01-15T08:43:20.937Z,99040.83
2019-01-15T08:45:48.458Z,99041.84
2019-01-15T08:48:18.765Z,99041.52
2019-01-15T08:50:47.628Z,99046.89
2019-01-15T08:53:17.006Z,99064.20
2019-01-15T08:55:45.966Z,99067.95
2019-01-15T08:58:13.762Z,99067.17
2019-01-15T09:00:40.630Z,99066.97
2019-01-15T09:03:07.834Z,99064.31
2019-01-15T09:05:35.875Z,99062.16
2019-01-15T09:08:04.001Z,99048.25
2019-01-15T09:10:31.760Z,99048.25
2019-01-15T09:12:58.869Z,99068.09
2019-01-15T09:15:26.620Z,99060.16
2019-01-15T09:17:54.827Z,99060.16
2019-01-15T09:20:22.727Z,99063.34
2019-01-15T09:22:50.885Z,99063.11
2019-01-15T09:25:18.805Z,99046.19
2019-01-15T09:27:47.392Z,99046.19
2019-01-15T09:30:19.802Z,99064.70
2019-01-15T09:32:47.868Z,99061.77
2019-01-15T09:35:15.743Z,99060.94
2019-01-15T09:37:44.868Z,99060.94
2019-01-15T09:40:14.799Z,99065.29
2019-01-15T09:42:42.794Z,99065.29
2019-01-15T09:45:12.883Z,99065.33
2019-01-15T09:47:50.795Z,99076.03
2019-01-15T09:50:19.946Z,99076.03
2019-01-15T09:52:48.831Z,99054.38
2019-01-15T09:55:17.785Z,99051.77
2019-01-15T09:57:45.736Z,99051.77
2019-01-15T10:00:13.959Z,99061.94
2019-01-15T10:02:42.386Z,99055.80
2019-01-15T10:05:10.666Z,99055.80
2019-01-15T10:07:39.323Z,99058.76
2019-01-15T10:10:08.821Z,99057.11
2019-01-15T10:12:36.747Z,99054.72
2019-01-15T10:15:07.105Z,99054.72
2019-01-15T10:17:35.800Z,99051.59
2019-01-15T10:20:09.348Z,99051.59
2019-01-15T10:22:37.856Z,99051.86
2019-01-15T10:25:08.695Z,99009.53
2019-01-15T10:27:37.807Z,99009.53
2019-01-15T10:30:13.003Z,99045.19
2019-01-15T10:33:03.776Z,99038.21
2019-01-15T10:36:02.802Z,99028.56
2019-01-15T10:38:33.761Z,99004.28
2019-01-15T10:41:02.354Z,99004.28
2019-01-15T10:43:34.930Z,99022.27
2019-01-15T10:46:04.389Z,98993.95
2019-01-15T10:48:33.787Z,98993.95
2019-01-15T10:51:01.675Z,98998.03
2019-01-15T10:53:29.508Z,99001.53
2019-01-15T10:55:57.811Z,98994.63
2019-01-15T10:58:25.706Z,98988.00
2019-01-15T11:00:54.598Z,98977.28
2019-01-15T11:03:23.851Z,98954.03
2019-01-15T11:05:53.352Z,98955.88
2019-01-15T11:08:21.851Z,98955.88
2019-01-15T11:10:50.707Z,98959.94
2019-01-15T11:13:18.856Z,98959.94
2019-01-15T11:15:47.359Z,98961.84
2019-01-15T11:18:16.365Z,98961.84
2019-01-15T11:20:45.783Z,98959.95
2019-01-15T11:23:14.869Z,98936.45
2019-01-15T11:25:44.247Z,98932.19
2019-01-15T11:28:13.702Z,98932.19
2019-01-15T11:30:41.768Z,98944.84
2019-01-15T11:33:09.959Z,98946.70
2019-01-15T11:35:38.753Z,98952.27
2019-01-15T11:38:08.131Z,98945.58
2019-01-15T11:40:36.738Z,98949.33
2019-01-15T11:43:05.694Z,98957.63
2019-01-15T11:45:33.432Z,98957.63
2019-01-15T11:48:01.774Z,98962.19
2019-01-15T11:52:56.782Z,98941.68
2019-01-15T11:55:26.785Z,98952.34
2019-01-15T11:57:54.780Z,98940.08
2019-01-15T12:00:35.328Z,98920.08
2019-01-15T12:03:26.777Z,98920.08
2019-01-15T12:06:17.775Z,98924.89
2019-01-15T12:09:16.347Z,98905.92
2019-01-15T12:12:03.772Z,98905.92
2019-01-15T12:15:10.813Z,98920.13
2019-01-15T12:17:55.785Z,98914.79
2019-01-15T12:20:37.344Z,98909.19
2019-01-15T12:23:27.875Z,98907.30
2019-01-15T12:26:31.613Z,98905.45
2019-01-15T12:29:25.775Z,98905.45
2019-01-15T12:39:24.374Z,98895.34
2019-01-15T12:42:12.007Z,98895.30
2019-01-15T12:45:00.776Z,98896.37
2019-01-15T12:47:48.409Z,98897.97
2019-01-15T12:50:43.117Z,98899.34
2019-01-15T12:53:31.798Z,98895.59
2019-01-15T12:56:14.389Z,98897.19
2019-01-15T12:59:09.805Z,98891.33
2019-01-15T13:01:47.823Z,98893.71
2019-01-15T13:04:48.757Z,98893.71
2019-01-15T13:07:30.971Z,98910.27
2019-01-15T13:10:18.923Z,98901.45
2019-01-15T13:13:01.795Z,98901.45
2019-01-15T13:16:08.791Z,98901.45
2019-01-15T13:19:02.767Z,98905.45
2019-01-15T13:22:03.809Z,98907.86
2019-01-15T13:24:41.795Z,98904.90
2019-01-15T13:27:20.871Z,98910.53
2019-01-15T13:30:16.100Z,98896.34
2019-01-15T13:33:04.753Z,98896.34
2019-01-15T13:35:52.830Z,98910.53
2019-01-15T13:38:43.745Z,98893.92
2019-01-15T13:41:32.797Z,98909.19
2019-01-15T13:44:20.804Z,98909.19
2019-01-15T13:47:09.559Z,98905.97
2019-01-15T13:49:56.954Z,98905.97
2019-01-15T13:52:45.060Z,98902.48
2019-01-15T13:55:39.806Z,98902.48
2019-01-15T13:58:27.894Z,98912.59
2019-01-15T14:01:15.791Z,98908.84
2019-01-15T14:04:02.870Z,98908.84
2019-01-15T14:06:57.784Z,98896.46
2019-01-15T14:09:41.771Z,98896.46
2019-01-15T14:12:29.805Z,98911.77
2019-01-15T14:15:20.840Z,98899.69
2019-01-15T14:18:08.401Z,98910.70
2019-01-15T14:21:12.799Z,98910.70
2019-01-15T14:24:20.320Z,98907.73
2019-01-15T14:27:13.389Z,98909.84
2019-01-15T14:30:03.810Z,98911.37
2019-01-15T14:32:51.405Z,98915.95
2019-01-15T14:35:46.755Z,98914.40
2019-01-15T14:38:29.817Z,98909.58
2019-01-15T14:41:32.875Z,98894.86
2019-01-15T14:44:23.832Z,98895.37
2019-01-15T14:47:17.858Z,98895.37
2019-01-15T14:50:22.783Z,98911.87
2019-01-15T14:53:05.348Z,98911.87
2019-01-15T14:56:03.418Z,98906.53
2019-01-15T14:58:51.930Z,98908.07
2019-01-15T15:01:48.837Z,98905.39
2019-01-15T15:04:43.402Z,98905.39
2019-01-15T15:07:47.362Z,98872.47
2019-01-15T15:10:35.306Z,98892.08
2019-01-15T15:13:30.313Z,98895.27
2019-01-15T15:16:25.869Z,98891.53
2019-01-15T15:19:14.884Z,98892.58
2019-01-15T15:22:12.927Z,98892.58
2019-01-15T15:25:01.379Z,98881.34
2019-01-15T15:27:39.493Z,98895.06
2019-01-15T15:30:31.826Z,98895.06
2019-01-15T15:33:19.866Z,98893.22
2019-01-15T15:36:06.838Z,98875.02
2019-01-15T15:39:08.915Z,98875.02
2019-01-15T15:42:00.394Z,98886.34
2019-01-15T15:44:54.814Z,98886.34
2019-01-15T15:47:44.002Z,98889.80
2019-01-15T15:50:41.803Z,98884.20
2019-01-15T15:53:38.391Z,98888.46
2019-01-15T15:56:30.435Z,98886.91
2019-01-15T15:59:18.811Z,98901.33
2019-01-15T16:02:19.762Z,98886.26
2019-01-15T16:05:07.736Z,98894.35
2019-01-15T16:07:54.966Z,98894.35
2019-01-15T16:10:43.476Z,98887.38
2019-01-15T16:13:32.300Z,98887.38
2019-01-15T16:16:18.782Z,98896.25
2019-01-15T16:18:55.112Z,98887.13
2019-01-15T16:21:43.878Z,98881.83
2019-01-15T16:24:35.821Z,98880.11
2019-01-15T16:27:23.307Z,98880.11
2019-01-15T16:30:08.829Z,98872.63
2019-01-15T16:33:54.703Z,98873.36
2019-01-15T16:39:32.621Z,98879.55
2019-01-15T16:42:39.528Z,98880.33
2019-01-15T16:45:40.857Z,98881.14
2019-01-15T16:48:28.596Z,98883.30
2019-01-15T16:51:04.698Z,98876.41
2019-01-15T16:53:49.107Z,98880.92
2019-01-15T16:56:32.242Z,98880.36
2019-01-15T16:59:27.507Z,98875.63
2019-01-15T17:05:06.406Z,98875.92
2019-01-15T17:07:53.091Z,98872.17
2019-01-15T17:10:43.062Z,98880.15
2019-01-15T17:13:28.999Z,98880.96
2019-01-15T17:16:07.873Z,98882.59
2019-01-15T17:18:56.056Z,98865.73
2019-01-15T17:21:50.836Z,98865.73
2019-01-15T17:24:35.020Z,98865.44
2019-01-15T17:27:16.030Z,98865.44
2019-01-15T17:30:04.074Z,98870.03
2019-01-15T17:35:46.805Z,98862.80
2019-01-15T17:41:51.037Z,98865.24
2019-01-15T17:44:45.451Z,98869.47
2019-01-15T17:47:31.479Z,98866.80
2019-01-15T17:50:38.768Z,98868.14
2019-01-15T17:53:27.381Z,98853.44
2019-01-15T17:56:12.432Z,98853.44
2019-01-15T17:59:00.061Z,98864.40
2019-01-15T18:01:47.474Z,98866.25
2019-01-15T18:04:35.160Z,98850.24
2019-01-15T18:07:29.289Z,98850.24
2019-01-15T18:10:17.479Z,98869.51
2019-01-15T18:13:08.365Z,98872.70
2019-01-15T18:15:56.072Z,98870.80
2019-01-15T18:18:39.778Z,98876.14
2019-01-15T18:21:29.378Z,98874.25
2019-01-15T18:24:20.741Z,98875.88
2019-01-15T18:27:11.355Z,98876.66
2019-01-15T18:29:58.786Z,98879.14
2019-01-15T18:32:48.788Z,98866.87
2019-01-15T18:35:37.055Z,98876.98
2019-01-15T18:38:27.969Z,98876.98
2019-01-15T18:41:14.355Z,98837.98
2019-01-15T18:43:58.452Z,98837.98
2019-01-15T18:55:09.639Z,98866.36
2019-01-15T18:57:58.466Z,98869.30
2019-01-15T19:01:07.968Z,98865.84
2019-01-15T19:03:59.791Z,98843.91
2019-01-15T19:06:47.712Z,98843.91
2019-01-15T19:09:36.353Z,98859.17
2019-01-15T19:12:23.912Z,98856.21
2019-01-15T19:15:22.344Z,98861.30
2019-01-15T19:18:11.366Z,98861.02
2019-01-15T19:20:59.785Z,98856.20
2019-01-15T19:23:47.762Z,98846.59
2019-01-15T19:26:36.690Z,98855.38
2019-01-15T19:29:27.786Z,98855.38
2019-01-15T19:32:32.755Z,98849.28
2019-01-15T19:35:19.391Z,98836.98
2019-01-15T19:38:08.354Z,98836.98
2019-01-15T19:41:13.397Z,98848.22
2019-01-15T19:45:49.358Z,98845.60
2019-01-15T19:51:36.572Z,98846.38
2019-01-15T19:54:26.058Z,98849.60
2019-01-15T19:57:13.475Z,98845.02
2019-01-15T19:59:54.504Z,98838.66
2019-01-15T20:02:31.635Z,98844.26
2019-01-15T20:05:28.442Z,98842.91
2019-01-15T20:08:18.496Z,98843.98
2019-01-15T20:11:08.582Z,98841.59
2019-01-15T20:14:09.248Z,98833.05
2019-01-15T20:17:02.563Z,98844.02
2019-01-15T20:19:49.820Z,98835.98
2019-01-15T20:22:36.855Z,98839.72
2019-01-15T20:25:24.798Z,98828.77
2019-01-15T20:28:14.768Z,98828.77
2019-01-15T20:30:58.728Z,98842.92
2019-01-15T20:33:51.963Z,98840.26
2019-01-15T20:36:39.046Z,98841.84
2019-01-15T20:39:21.414Z,98846.12
2019-01-15T20:42:08.804Z,98846.12
2019-01-15T20:44:52.794Z,98844.77
2019-01-15T20:47:46.811Z,98850.68
2019-01-15T20:50:33.880Z,98850.68
2019-01-15T20:53:19.253Z,98848.27
2019-01-15T20:56:07.757Z,98847.71
2019-01-15T20:58:54.886Z,98842.67
2019-01-15T21:04:19.431Z,98847.75
2019-01-15T21:07:22.813Z,98844.53
2019-01-15T21:10:12.319Z,98845.08
2019-01-15T21:13:09.768Z,98845.59
2019-01-15T21:15:45.759Z,98849.34
2019-01-15T21:18:32.092Z,98846.93
2019-01-15T21:21:25.218Z,98844.52
2019-01-15T21:24:25.779Z,98845.28
2019-01-15T21:27:32.002Z,98843.44
2019-01-15T21:30:18.978Z,98838.91
2019-01-15T21:34:38.037Z,98834.13
2019-01-15T21:37:24.574Z,98840.52
2019-01-15T21:40:10.856Z,98835.45
2019-01-15T21:42:48.837Z,98833.05
2019-01-15T21:45:32.041Z,98835.98
2019-01-15T21:48:15.744Z,98830.36
2019-01-15T21:51:01.765Z,98832.50
2019-01-15T21:53:50.892Z,98835.45
2019-01-15T21:56:41.020Z,98835.45
2019-01-15T21:59:27.114Z,98842.66
2019-01-15T22:02:30.237Z,98831.16
2019-01-15T22:05:17.894Z,98833.02
2019-01-15T22:08:04.049Z,98818.04
2019-01-15T22:10:43.801Z,98818.04
2019-01-15T22:13:48.236Z,98828.74
2019-01-15T22:16:37.379Z,98833.84
2019-01-15T22:19:25.751Z,98826.06
2019-01-15T22:22:16.349Z,98822.58
2019-01-15T22:25:23.756Z,98818.32
2019-01-15T22:28:06.170Z,98818.30
2019-01-15T22:31:00.739Z,98816.70
2019-01-15T22:33:48.743Z,98808.96
2019-01-15T22:36:36.389Z,98810.27
2019-01-15T22:39:30.744Z,98812.63
2019-01-15T22:42:23.112Z,98801.48
2019-01-15T22:45:09.085Z,98801.48
2019-01-15T22:50:30.388Z,98798.27
2019-01-15T22:56:48.456Z,98793.52
2019-01-15T23:02:21.370Z,98797.48
2019-01-15T23:14:12.027Z,98773.48
2019-01-15T23:16:47.726Z,98776.94
2019-01-15T23:19:26.604Z,98773.72
2019-01-15T23:22:13.034Z,98755.85
2019-01-15T23:24:52.433Z,98755.85
2019-01-15T23:27:40.241Z,98769.45
2019-01-15T23:30:37.772Z,98765.19
2019-01-15T23:36:57.646Z,98761.45
2019-01-15T23:39:38.276Z,98760.65
2019-01-15T23:42:36.793Z,98783.06
2019-01-15T23:45:30.622Z,98777.18
2019-01-15T23:48:23.829Z,98777.47
2019-01-15T23:51:21.355Z,98769.98
2019-01-15T23:55:23.786Z,98761.97
2019-01-15T23:58:17.770Z,98761.44
